sensor_id;sensor_type;location;lat;lon;timestamp;temperature;humidity
802;DHT22;383;48.766;9.270;2023-02-01T02:10:13;6.10;82.30
802;DHT22;383;48.766;9.270;2023-02-01T02:12:43;6.10;90.60
802;DHT22;383;48.766;9.270;2023-02-01T02:15:14;6.00;90.70
802;DHT22;383;48.766;9.270;2023-02-01T02:17:46;5.90;91.20
802;DHT22;383;48.766;9.270;2023-02-01T02:21:01;6.00;91.40
802;DHT22;383;48.766;9.270;2023-02-01T02:24:06;6.10;90.90
802;DHT22;383;48.766;9.270;2023-02-01T02:26:57;6.00;91.00
802;DHT22;383;48.766;9.270;2023-02-01T02:30:00;6.10;90.90
802;DHT22;383;48.766;9.270;2023-02-01T02:35:31;6.20;90.50
802;DHT22;383;48.766;9.270;2023-02-01T02:38:11;6.10;90.70
802;DHT22;383;48.766;9.270;2023-02-01T02:40:45;6.10;90.90
802;DHT22;383;48.766;9.270;2023-02-01T02:43:20;6.10;91.10
802;DHT22;383;48.766;9.270;2023-02-01T02:46:12;6.10;91.20
802;DHT22;383;48.766;9.270;2023-02-01T02:49:04;6.10;91.10
802;DHT22;383;48.766;9.270;2023-02-01T02:51:37;6.10;91.00
802;DHT22;383;48.766;9.270;2023-02-01T02:54:25;6.10;91.40
802;DHT22;383;48.766;9.270;2023-02-01T02:57:14;6.20;91.10
802;DHT22;383;48.766;9.270;2023-02-01T03:00:00;6.20;90.90
802;DHT22;383;48.766;9.270;2023-02-01T03:02:46;6.30;91.00
802;DHT22;383;48.766;9.270;2023-02-01T03:05:34;6.20;91.30
802;DHT22;383;48.766;9.270;2023-02-01T03:08:08;6.30;91.40
802;DHT22;383;48.766;9.270;2023-02-01T03:10:42;6.30;91.70
802;DHT22;383;48.766;9.270;2023-02-01T03:13:13;6.30;91.80
802;DHT22;383;48.766;9.270;2023-02-01T03:15:46;6.20;92.10
802;DHT22;383;48.766;9.270;2023-02-01T03:18:19;6.30;92.30
802;DHT22;383;48.766;9.270;2023-02-01T03:25:48;6.30;92.30
802;DHT22;383;48.766;9.270;2023-02-01T03:28:15;6.30;91.90
802;DHT22;383;48.766;9.270;2023-02-01T03:30:48;6.30;92.00
802;DHT22;383;48.766;9.270;2023-02-01T03:33:17;6.30;92.10
802;DHT22;383;48.766;9.270;2023-02-01T03:35:57;6.30;92.10
802;DHT22;383;48.766;9.270;2023-02-01T03:38:30;6.30;91.90
802;DHT22;383;48.766;9.270;2023-02-01T03:41:03;6.30;91.80
802;DHT22;383;48.766;9.270;2023-02-01T03:43:37;6.20;92.20
802;DHT22;383;48.766;9.270;2023-02-01T03:46:11;6.20;92.30
802;DHT22;383;48.766;9.270;2023-02-01T03:48:39;6.20;92.20
802;DHT22;383;48.766;9.270;2023-02-01T03:51:06;6.10;92.30
802;DHT22;383;48.766;9.270;2023-02-01T03:53:36;6.10;92.50
802;DHT22;383;48.766;9.270;2023-02-01T03:56:04;6.10;92.60
802;DHT22;383;48.766;9.270;2023-02-01T03:58:31;6.00;92.70
802;DHT22;383;48.766;9.270;2023-02-01T04:00:59;6.00;92.90
802;DHT22;383;48.766;9.270;2023-02-01T04:03:27;6.10;92.60
802;DHT22;383;48.766;9.270;2023-02-01T04:05:54;6.10;92.60
802;DHT22;383;48.766;9.270;2023-02-01T04:08:22;6.10;92.50
802;DHT22;383;48.766;9.270;2023-02-01T04:10:50;6.20;92.70
802;DHT22;383;48.766;9.270;2023-02-01T04:13:17;6.20;92.70
802;DHT22;383;48.766;9.270;2023-02-01T04:15:43;6.30;92.70
802;DHT22;383;48.766;9.270;2023-02-01T04:18:11;6.30;92.70
802;DHT22;383;48.766;9.270;2023-02-01T04:20:37;6.30;92.80
802;DHT22;383;48.766;9.270;2023-02-01T04:23:04;6.30;92.70
802;DHT22;383;48.766;9.270;2023-02-01T04:25:31;6.40;92.40
802;DHT22;383;48.766;9.270;2023-02-01T04:27:59;6.40;92.70
802;DHT22;383;48.766;9.270;2023-02-01T04:30:26;6.50;92.00
802;DHT22;383;48.766;9.270;2023-02-01T04:32:52;6.50;92.00
802;DHT22;383;48.766;9.270;2023-02-01T04:35:19;6.50;91.80
802;DHT22;383;48.766;9.270;2023-02-01T04:37:46;6.50;92.00
802;DHT22;383;48.766;9.270;2023-02-01T04:40:13;6.50;91.60
802;DHT22;383;48.766;9.270;2023-02-01T04:42:39;6.50;91.90
802;DHT22;383;48.766;9.270;2023-02-01T04:45:08;6.40;91.80
802;DHT22;383;48.766;9.270;2023-02-01T04:47:35;6.40;91.90
802;DHT22;383;48.766;9.270;2023-02-01T04:50:02;6.40;91.60
802;DHT22;383;48.766;9.270;2023-02-01T04:52:28;6.30;92.10
802;DHT22;383;48.766;9.270;2023-02-01T04:54:55;6.10;92.40
802;DHT22;383;48.766;9.270;2023-02-01T04:57:23;6.00;92.90
802;DHT22;383;48.766;9.270;2023-02-01T04:59:49;6.00;93.10
802;DHT22;383;48.766;9.270;2023-02-01T05:02:17;6.00;93.00
802;DHT22;383;48.766;9.270;2023-02-01T05:04:44;6.10;92.90
802;DHT22;383;48.766;9.270;2023-02-01T05:07:11;6.10;92.90
802;DHT22;383;48.766;9.270;2023-02-01T05:09:37;6.20;92.80
802;DHT22;383;48.766;9.270;2023-02-01T05:12:05;6.20;92.40
802;DHT22;383;48.766;9.270;2023-02-01T05:14:49;6.30;92.10
802;DHT22;383;48.766;9.270;2023-02-01T05:17:17;6.30;92.20
802;DHT22;383;48.766;9.270;2023-02-01T05:19:44;6.30;92.30
802;DHT22;383;48.766;9.270;2023-02-01T05:22:10;6.30;92.00
802;DHT22;383;48.766;9.270;2023-02-01T05:24:37;6.30;92.10
802;DHT22;383;48.766;9.270;2023-02-01T05:27:04;6.40;91.50
802;DHT22;383;48.766;9.270;2023-02-01T05:29:31;6.40;91.60
802;DHT22;383;48.766;9.270;2023-02-01T05:31:57;6.50;91.70
802;DHT22;383;48.766;9.270;2023-02-01T05:34:25;6.50;91.60
802;DHT22;383;48.766;9.270;2023-02-01T05:36:52;6.50;91.70
802;DHT22;383;48.766;9.270;2023-02-01T05:39:19;6.60;91.30
802;DHT22;383;48.766;9.270;2023-02-01T05:41:47;6.60;90.90
802;DHT22;383;48.766;9.270;2023-02-01T05:44:30;6.60;90.60
802;DHT22;383;48.766;9.270;2023-02-01T05:47:11;6.60;90.80
802;DHT22;383;48.766;9.270;2023-02-01T05:49:40;6.60;90.30
802;DHT22;383;48.766;9.270;2023-02-01T05:52:06;6.60;90.50
802;DHT22;383;48.766;9.270;2023-02-01T05:54:33;6.70;90.40
802;DHT22;383;48.766;9.270;2023-02-01T05:57:00;6.70;90.20
802;DHT22;383;48.766;9.270;2023-02-01T05:59:26;6.70;90.10
802;DHT22;383;48.766;9.270;2023-02-01T06:01:53;6.70;90.00
802;DHT22;383;48.766;9.270;2023-02-01T06:04:20;6.70;90.00
802;DHT22;383;48.766;9.270;2023-02-01T06:06:48;6.70;90.50
802;DHT22;383;48.766;9.270;2023-02-01T06:09:16;6.70;91.00
802;DHT22;383;48.766;9.270;2023-02-01T06:11:43;6.60;91.50
802;DHT22;383;48.766;9.270;2023-02-01T06:14:09;6.60;92.00
802;DHT22;383;48.766;9.270;2023-02-01T06:16:36;6.60;92.10
802;DHT22;383;48.766;9.270;2023-02-01T06:19:03;6.60;92.30
802;DHT22;383;48.766;9.270;2023-02-01T06:21:29;6.50;92.60
802;DHT22;383;48.766;9.270;2023-02-01T06:23:58;6.40;92.70
802;DHT22;383;48.766;9.270;2023-02-01T06:26:25;6.30;93.10
802;DHT22;383;48.766;9.270;2023-02-01T06:28:54;6.30;93.40
802;DHT22;383;48.766;9.270;2023-02-01T06:31:21;6.30;93.20
802;DHT22;383;48.766;9.270;2023-02-01T06:33:48;6.30;92.00
802;DHT22;383;48.766;9.270;2023-02-01T06:36:15;6.30;92.30
802;DHT22;383;48.766;9.270;2023-02-01T06:38:44;6.30;92.80
802;DHT22;383;48.766;9.270;2023-02-01T06:41:12;6.30;93.00
802;DHT22;383;48.766;9.270;2023-02-01T06:43:39;6.30;92.80
802;DHT22;383;48.766;9.270;2023-02-01T06:46:07;6.40;92.80
802;DHT22;383;48.766;9.270;2023-02-01T06:48:36;6.40;92.70
802;DHT22;383;48.766;9.270;2023-02-01T06:51:02;6.40;92.60
802;DHT22;383;48.766;9.270;2023-02-01T06:53:30;6.50;92.60
802;DHT22;383;48.766;9.270;2023-02-01T06:55:58;6.50;92.40
802;DHT22;383;48.766;9.270;2023-02-01T06:58:30;6.50;92.50
802;DHT22;383;48.766;9.270;2023-02-01T07:00:56;6.60;92.50
802;DHT22;383;48.766;9.270;2023-02-01T07:03:23;6.60;92.20
802;DHT22;383;48.766;9.270;2023-02-01T07:05:56;6.60;92.00
802;DHT22;383;48.766;9.270;2023-02-01T07:08:24;6.50;91.80
802;DHT22;383;48.766;9.270;2023-02-01T07:10:51;6.60;92.00
802;DHT22;383;48.766;9.270;2023-02-01T07:13:18;6.60;91.90
802;DHT22;383;48.766;9.270;2023-02-01T07:15:46;6.60;91.80
802;DHT22;383;48.766;9.270;2023-02-01T08:29:59;6.60;91.60
802;DHT22;383;48.766;9.270;2023-02-01T08:32:26;7.30;88.00
802;DHT22;383;48.766;9.270;2023-02-01T08:34:53;7.40;87.20
802;DHT22;383;48.766;9.270;2023-02-01T08:37:20;7.30;87.10
802;DHT22;383;48.766;9.270;2023-02-01T08:39:49;7.20;87.40
802;DHT22;383;48.766;9.270;2023-02-01T08:42:16;7.20;87.40
802;DHT22;383;48.766;9.270;2023-02-01T08:45:01;7.30;87.80
802;DHT22;383;48.766;9.270;2023-02-01T08:47:27;7.30;87.40
802;DHT22;383;48.766;9.270;2023-02-01T09:44:08;7.40;87.60
802;DHT22;383;48.766;9.270;2023-02-01T09:46:40;8.00;84.00
802;DHT22;383;48.766;9.270;2023-02-01T09:49:12;8.10;83.40
802;DHT22;383;48.766;9.270;2023-02-01T09:51:42;8.20;83.10
802;DHT22;383;48.766;9.270;2023-02-01T09:54:14;8.20;81.80
802;DHT22;383;48.766;9.270;2023-02-01T09:56:45;8.40;81.00
802;DHT22;383;48.766;9.270;2023-02-01T09:59:21;8.40;81.60
802;DHT22;383;48.766;9.270;2023-02-01T10:01:51;8.50;81.90
802;DHT22;383;48.766;9.270;2023-02-01T10:04:18;8.60;80.40
802;DHT22;383;48.766;9.270;2023-02-01T10:06:54;8.50;80.60
802;DHT22;383;48.766;9.270;2023-02-01T10:09:35;8.40;80.00
802;DHT22;383;48.766;9.270;2023-02-01T10:12:22;8.50;78.20
802;DHT22;383;48.766;9.270;2023-02-01T10:15:01;8.60;77.50
802;DHT22;383;48.766;9.270;2023-02-01T10:17:41;8.60;77.90
802;DHT22;383;48.766;9.270;2023-02-01T10:20:15;8.60;77.40
802;DHT22;383;48.766;9.270;2023-02-01T10:22:46;8.70;76.60
802;DHT22;383;48.766;9.270;2023-02-01T10:25:19;8.70;77.70
802;DHT22;383;48.766;9.270;2023-02-01T10:27:47;8.80;77.10
802;DHT22;383;48.766;9.270;2023-02-01T10:30:20;8.90;75.40
802;DHT22;383;48.766;9.270;2023-02-01T10:32:51;8.90;74.60
802;DHT22;383;48.766;9.270;2023-02-01T10:35:24;9.00;74.00
802;DHT22;383;48.766;9.270;2023-02-01T10:37:52;9.00;72.30
802;DHT22;383;48.766;9.270;2023-02-01T10:40:21;9.10;73.20
802;DHT22;383;48.766;9.270;2023-02-01T10:42:50;9.20;73.00
802;DHT22;383;48.766;9.270;2023-02-01T10:45:19;9.30;73.40
802;DHT22;383;48.766;9.270;2023-02-01T10:47:49;9.30;72.50
802;DHT22;383;48.766;9.270;2023-02-01T10:50:22;9.30;72.30
802;DHT22;383;48.766;9.270;2023-02-01T10:52:57;9.20;70.40
802;DHT22;383;48.766;9.270;2023-02-01T10:55:33;9.20;71.50
802;DHT22;383;48.766;9.270;2023-02-01T10:58:02;9.20;71.60
802;DHT22;383;48.766;9.270;2023-02-01T11:00:39;9.20;71.30
802;DHT22;383;48.766;9.270;2023-02-01T11:03:22;9.10;71.20
802;DHT22;383;48.766;9.270;2023-02-01T11:05:55;9.10;70.90
802;DHT22;383;48.766;9.270;2023-02-01T11:08:22;9.00;70.10
802;DHT22;383;48.766;9.270;2023-02-01T11:10:58;9.10;70.90
802;DHT22;383;48.766;9.270;2023-02-01T11:13:29;9.20;71.10
802;DHT22;383;48.766;9.270;2023-02-01T11:15:56;9.10;69.90
802;DHT22;383;48.766;9.270;2023-02-01T11:18:28;9.10;69.10
802;DHT22;383;48.766;9.270;2023-02-01T11:20:55;8.90;70.00
802;DHT22;383;48.766;9.270;2023-02-01T11:23:24;9.00;69.30
802;DHT22;383;48.766;9.270;2023-02-01T11:25:53;8.90;70.00
802;DHT22;383;48.766;9.270;2023-02-01T11:28:25;9.00;69.70
802;DHT22;383;48.766;9.270;2023-02-01T11:30:54;9.00;69.90
802;DHT22;383;48.766;9.270;2023-02-01T11:33:27;9.10;70.00
802;DHT22;383;48.766;9.270;2023-02-01T11:35:56;9.10;70.40
802;DHT22;383;48.766;9.270;2023-02-01T11:38:27;9.10;68.80
802;DHT22;383;48.766;9.270;2023-02-01T11:40:55;9.10;69.20
802;DHT22;383;48.766;9.270;2023-02-01T11:43:24;9.00;70.10
802;DHT22;383;48.766;9.270;2023-02-01T11:45:56;9.10;68.60
802;DHT22;383;48.766;9.270;2023-02-01T11:48:25;9.20;69.90
802;DHT22;383;48.766;9.270;2023-02-01T11:51:04;9.30;69.60
802;DHT22;383;48.766;9.270;2023-02-01T11:53:40;9.30;68.70
802;DHT22;383;48.766;9.270;2023-02-01T11:56:17;9.20;68.40
802;DHT22;383;48.766;9.270;2023-02-01T11:59:11;9.10;68.90
802;DHT22;383;48.766;9.270;2023-02-01T12:01:58;9.20;70.00
802;DHT22;383;48.766;9.270;2023-02-01T12:04:44;9.20;67.20
802;DHT22;383;48.766;9.270;2023-02-01T12:07:21;9.30;68.60
802;DHT22;383;48.766;9.270;2023-02-01T12:10:06;9.40;67.20
802;DHT22;383;48.766;9.270;2023-02-01T12:12:45;9.50;67.90
802;DHT22;383;48.766;9.270;2023-02-01T12:15:39;9.50;66.80
802;DHT22;383;48.766;9.270;2023-02-01T12:18:41;9.30;65.60
802;DHT22;383;48.766;9.270;2023-02-01T12:21:23;9.00;66.60
802;DHT22;383;48.766;9.270;2023-02-01T12:24:06;8.90;67.40
802;DHT22;383;48.766;9.270;2023-02-01T12:29:20;9.10;66.80
802;DHT22;383;48.766;9.270;2023-02-01T12:34:58;9.00;67.50
802;DHT22;383;48.766;9.270;2023-02-01T12:37:40;8.90;67.50
802;DHT22;383;48.766;9.270;2023-02-01T12:40:21;8.90;67.40
802;DHT22;383;48.766;9.270;2023-02-01T12:42:57;9.00;67.50
802;DHT22;383;48.766;9.270;2023-02-01T12:45:30;9.00;67.60
802;DHT22;383;48.766;9.270;2023-02-01T12:48:05;9.00;67.60
802;DHT22;383;48.766;9.270;2023-02-01T12:50:44;8.90;67.60
802;DHT22;383;48.766;9.270;2023-02-01T12:53:17;8.70;68.80
802;DHT22;383;48.766;9.270;2023-02-01T12:55:50;8.70;69.30
802;DHT22;383;48.766;9.270;2023-02-01T12:58:22;8.80;69.10
802;DHT22;383;48.766;9.270;2023-02-01T13:00:54;8.70;68.90
802;DHT22;383;48.766;9.270;2023-02-01T13:03:32;8.70;69.30
802;DHT22;383;48.766;9.270;2023-02-01T13:06:05;8.60;70.40
802;DHT22;383;48.766;9.270;2023-02-01T13:08:40;8.40;70.50
802;DHT22;383;48.766;9.270;2023-02-01T13:11:12;8.40;70.90
802;DHT22;383;48.766;9.270;2023-02-01T13:13:46;8.40;71.60
802;DHT22;383;48.766;9.270;2023-02-01T13:16:16;8.40;71.60
802;DHT22;383;48.766;9.270;2023-02-01T13:18:49;8.40;71.60
802;DHT22;383;48.766;9.270;2023-02-01T13:21:20;8.50;71.90
802;DHT22;383;48.766;9.270;2023-02-01T13:23:48;8.60;71.20
802;DHT22;383;48.766;9.270;2023-02-01T13:26:16;8.70;70.70
802;DHT22;383;48.766;9.270;2023-02-01T13:28:46;8.80;70.50
802;DHT22;383;48.766;9.270;2023-02-01T13:31:36;8.70;70.30
802;DHT22;383;48.766;9.270;2023-02-01T13:34:33;8.70;70.10
802;DHT22;383;48.766;9.270;2023-02-01T13:37:23;8.70;70.40
802;DHT22;383;48.766;9.270;2023-02-01T13:40:10;8.70;70.40
802;DHT22;383;48.766;9.270;2023-02-01T13:42:49;8.70;70.30
802;DHT22;383;48.766;9.270;2023-02-01T13:45:19;8.80;69.20
802;DHT22;383;48.766;9.270;2023-02-01T13:47:49;8.60;68.90
802;DHT22;383;48.766;9.270;2023-02-01T13:50:23;8.60;69.50
802;DHT22;383;48.766;9.270;2023-02-01T13:52:54;8.60;70.40
802;DHT22;383;48.766;9.270;2023-02-01T13:55:31;8.70;70.80
802;DHT22;383;48.766;9.270;2023-02-01T13:58:15;8.70;70.50
802;DHT22;383;48.766;9.270;2023-02-01T14:00:44;8.70;70.10
802;DHT22;383;48.766;9.270;2023-02-01T14:03:14;8.60;70.70
802;DHT22;383;48.766;9.270;2023-02-01T14:06:00;8.60;70.70
802;DHT22;383;48.766;9.270;2023-02-01T14:08:45;8.60;71.60
802;DHT22;383;48.766;9.270;2023-02-01T14:11:40;8.50;72.00
802;DHT22;383;48.766;9.270;2023-02-01T14:26:10;8.60;71.30
802;DHT22;383;48.766;9.270;2023-02-01T14:28:49;8.60;70.90
802;DHT22;383;48.766;9.270;2023-02-01T14:31:39;8.60;71.50
802;DHT22;383;48.766;9.270;2023-02-01T14:34:16;8.50;71.90
802;DHT22;383;48.766;9.270;2023-02-01T14:36:47;8.60;72.10
802;DHT22;383;48.766;9.270;2023-02-01T14:39:33;8.60;71.70
802;DHT22;383;48.766;9.270;2023-02-01T14:42:03;8.60;72.10
802;DHT22;383;48.766;9.270;2023-02-01T14:44:35;8.70;71.60
802;DHT22;383;48.766;9.270;2023-02-01T14:47:25;8.80;69.90
802;DHT22;383;48.766;9.270;2023-02-01T14:49:56;8.80;70.50
802;DHT22;383;48.766;9.270;2023-02-01T14:52:32;8.70;70.10
802;DHT22;383;48.766;9.270;2023-02-01T14:55:04;8.70;70.40
802;DHT22;383;48.766;9.270;2023-02-01T14:57:36;8.60;70.40
802;DHT22;383;48.766;9.270;2023-02-01T15:00:17;8.60;70.70
802;DHT22;383;48.766;9.270;2023-02-01T15:02:44;8.50;71.30
802;DHT22;383;48.766;9.270;2023-02-01T15:05:28;8.40;70.70
802;DHT22;383;48.766;9.270;2023-02-01T15:08:04;8.50;70.80
802;DHT22;383;48.766;9.270;2023-02-01T15:10:44;8.30;71.90
802;DHT22;383;48.766;9.270;2023-02-01T15:13:22;8.20;72.60
802;DHT22;383;48.766;9.270;2023-02-01T15:16:03;8.20;71.90
802;DHT22;383;48.766;9.270;2023-02-01T15:18:30;8.20;72.50
802;DHT22;383;48.766;9.270;2023-02-01T15:20:58;8.20;72.30
802;DHT22;383;48.766;9.270;2023-02-01T15:23:25;8.10;72.90
802;DHT22;383;48.766;9.270;2023-02-01T15:25:54;8.10;73.30
802;DHT22;383;48.766;9.270;2023-02-01T15:28:21;8.10;73.30
802;DHT22;383;48.766;9.270;2023-02-01T15:30:57;8.10;73.30
802;DHT22;383;48.766;9.270;2023-02-01T15:33:24;8.10;73.20
802;DHT22;383;48.766;9.270;2023-02-01T15:35:52;8.10;73.80
802;DHT22;383;48.766;9.270;2023-02-01T15:38:35;8.10;74.00
802;DHT22;383;48.766;9.270;2023-02-01T15:41:09;8.20;74.10
802;DHT22;383;48.766;9.270;2023-02-01T15:43:41;8.20;74.20
802;DHT22;383;48.766;9.270;2023-02-01T15:46:11;8.20;73.60
802;DHT22;383;48.766;9.270;2023-02-01T15:48:42;8.20;74.00
802;DHT22;383;48.766;9.270;2023-02-01T15:51:19;8.20;74.60
802;DHT22;383;48.766;9.270;2023-02-01T15:53:48;8.20;72.50
802;DHT22;383;48.766;9.270;2023-02-01T15:56:22;8.20;72.50
802;DHT22;383;48.766;9.270;2023-02-01T15:58:53;8.20;73.20
802;DHT22;383;48.766;9.270;2023-02-01T16:01:20;8.20;73.60
802;DHT22;383;48.766;9.270;2023-02-01T16:03:47;8.30;71.90
802;DHT22;383;48.766;9.270;2023-02-01T16:06:27;8.20;72.30
802;DHT22;383;48.766;9.270;2023-02-01T16:08:59;8.20;72.10
802;DHT22;383;48.766;9.270;2023-02-01T16:11:30;8.20;71.20
802;DHT22;383;48.766;9.270;2023-02-01T16:13:57;8.10;71.90
802;DHT22;383;48.766;9.270;2023-02-01T16:16:25;8.20;72.00
802;DHT22;383;48.766;9.270;2023-02-01T16:18:52;8.20;71.50
802;DHT22;383;48.766;9.270;2023-02-01T16:21:18;8.20;71.60
802;DHT22;383;48.766;9.270;2023-02-01T16:23:48;8.10;71.20
802;DHT22;383;48.766;9.270;2023-02-01T16:26:15;8.00;71.90
802;DHT22;383;48.766;9.270;2023-02-01T16:28:43;8.00;71.60
802;DHT22;383;48.766;9.270;2023-02-01T16:31:12;8.00;72.30
802;DHT22;383;48.766;9.270;2023-02-01T16:33:45;8.10;70.90
802;DHT22;383;48.766;9.270;2023-02-01T16:36:12;8.10;71.10
802;DHT22;383;48.766;9.270;2023-02-01T16:38:39;8.10;71.20
802;DHT22;383;48.766;9.270;2023-02-01T16:41:06;8.10;71.50
802;DHT22;383;48.766;9.270;2023-02-01T16:43:34;8.00;70.90
802;DHT22;383;48.766;9.270;2023-02-01T16:46:02;8.00;71.50
802;DHT22;383;48.766;9.270;2023-02-01T16:48:30;8.00;71.90
802;DHT22;383;48.766;9.270;2023-02-01T16:50:59;8.00;71.50
802;DHT22;383;48.766;9.270;2023-02-01T16:53:28;8.00;72.10
802;DHT22;383;48.766;9.270;2023-02-01T16:55:56;8.00;71.50
802;DHT22;383;48.766;9.270;2023-02-01T16:58:23;8.00;71.50
802;DHT22;383;48.766;9.270;2023-02-01T17:00:50;8.00;71.60
802;DHT22;383;48.766;9.270;2023-02-01T17:03:19;8.00;71.30
802;DHT22;383;48.766;9.270;2023-02-01T17:05:48;7.90;71.90
802;DHT22;383;48.766;9.270;2023-02-01T17:08:18;7.90;72.40
802;DHT22;383;48.766;9.270;2023-02-01T17:10:46;7.80;72.50
802;DHT22;383;48.766;9.270;2023-02-01T17:13:14;7.70;72.10
802;DHT22;383;48.766;9.270;2023-02-01T17:15:45;7.70;72.60
802;DHT22;383;48.766;9.270;2023-02-01T17:18:15;7.70;73.30
802;DHT22;383;48.766;9.270;2023-02-01T17:20:44;7.70;73.30
802;DHT22;383;48.766;9.270;2023-02-01T17:23:13;7.70;73.60
802;DHT22;383;48.766;9.270;2023-02-01T17:25:39;7.70;73.80
802;DHT22;383;48.766;9.270;2023-02-01T17:28:08;7.80;73.70
802;DHT22;383;48.766;9.270;2023-02-01T17:30:35;7.70;74.00
802;DHT22;383;48.766;9.270;2023-02-01T17:33:03;7.70;74.00
802;DHT22;383;48.766;9.270;2023-02-01T17:35:30;7.70;74.20
802;DHT22;383;48.766;9.270;2023-02-01T17:37:58;7.70;74.20
802;DHT22;383;48.766;9.270;2023-02-01T17:40:25;7.70;74.10
802;DHT22;383;48.766;9.270;2023-02-01T17:42:54;7.70;74.00
802;DHT22;383;48.766;9.270;2023-02-01T17:45:32;7.80;73.80
802;DHT22;383;48.766;9.270;2023-02-01T17:48:01;7.80;73.60
802;DHT22;383;48.766;9.270;2023-02-01T17:50:30;7.80;73.30
802;DHT22;383;48.766;9.270;2023-02-01T17:52:58;7.80;73.40
802;DHT22;383;48.766;9.270;2023-02-01T17:55:25;7.80;73.40
802;DHT22;383;48.766;9.270;2023-02-01T17:57:52;7.80;73.60
802;DHT22;383;48.766;9.270;2023-02-01T18:00:20;7.80;73.80
802;DHT22;383;48.766;9.270;2023-02-01T18:02:47;7.80;74.50
802;DHT22;383;48.766;9.270;2023-02-01T18:05:17;7.70;75.20
802;DHT22;383;48.766;9.270;2023-02-01T18:07:45;7.70;75.60
802;DHT22;383;48.766;9.270;2023-02-01T18:10:13;7.70;74.90
802;DHT22;383;48.766;9.270;2023-02-01T18:12:40;7.70;74.80
802;DHT22;383;48.766;9.270;2023-02-01T18:15:16;7.60;75.00
802;DHT22;383;48.766;9.270;2023-02-01T18:17:43;7.50;75.80
802;DHT22;383;48.766;9.270;2023-02-01T18:20:13;7.60;76.10
802;DHT22;383;48.766;9.270;2023-02-01T18:22:41;7.60;76.10
802;DHT22;383;48.766;9.270;2023-02-01T18:25:19;7.60;74.90
802;DHT22;383;48.766;9.270;2023-02-01T18:27:47;7.60;75.60
802;DHT22;383;48.766;9.270;2023-02-01T18:30:14;7.60;75.70
802;DHT22;383;48.766;9.270;2023-02-01T18:32:42;7.70;76.00
802;DHT22;383;48.766;9.270;2023-02-01T18:35:16;7.80;75.70
802;DHT22;383;48.766;9.270;2023-02-01T18:37:43;7.80;75.00
802;DHT22;383;48.766;9.270;2023-02-01T18:40:13;7.80;75.20
802;DHT22;383;48.766;9.270;2023-02-01T18:42:42;7.80;74.90
802;DHT22;383;48.766;9.270;2023-02-01T18:45:28;7.80;74.80
802;DHT22;383;48.766;9.270;2023-02-01T18:47:56;7.70;74.50
802;DHT22;383;48.766;9.270;2023-02-01T18:50:24;7.70;75.00
802;DHT22;383;48.766;9.270;2023-02-01T18:52:52;7.80;74.90
802;DHT22;383;48.766;9.270;2023-02-01T18:55:19;7.80;74.60
802;DHT22;383;48.766;9.270;2023-02-01T18:57:47;7.70;74.80
802;DHT22;383;48.766;9.270;2023-02-01T19:00:15;7.80;74.90
802;DHT22;383;48.766;9.270;2023-02-01T19:02:42;7.80;74.80
802;DHT22;383;48.766;9.270;2023-02-01T19:05:10;7.80;74.50
802;DHT22;383;48.766;9.270;2023-02-01T19:07:38;7.80;74.50
802;DHT22;383;48.766;9.270;2023-02-01T19:10:06;7.80;73.60
802;DHT22;383;48.766;9.270;2023-02-01T19:12:34;7.80;73.70
802;DHT22;383;48.766;9.270;2023-02-01T19:15:06;7.80;73.70
802;DHT22;383;48.766;9.270;2023-02-01T19:17:33;7.90;73.30
802;DHT22;383;48.766;9.270;2023-02-01T19:20:01;7.90;73.30
802;DHT22;383;48.766;9.270;2023-02-01T19:22:29;7.90;73.30
802;DHT22;383;48.766;9.270;2023-02-01T19:24:55;7.90;73.00
802;DHT22;383;48.766;9.270;2023-02-01T19:27:22;7.80;72.30
802;DHT22;383;48.766;9.270;2023-02-01T19:29:49;7.80;73.00
802;DHT22;383;48.766;9.270;2023-02-01T19:32:18;7.70;73.40
802;DHT22;383;48.766;9.270;2023-02-01T19:34:45;7.70;73.70
802;DHT22;383;48.766;9.270;2023-02-01T19:37:11;7.60;73.40
802;DHT22;383;48.766;9.270;2023-02-01T19:39:38;7.60;73.80
802;DHT22;383;48.766;9.270;2023-02-01T19:42:06;7.60;73.80
802;DHT22;383;48.766;9.270;2023-02-01T19:44:34;7.50;74.10
802;DHT22;383;48.766;9.270;2023-02-01T19:47:00;7.50;74.20
802;DHT22;383;48.766;9.270;2023-02-01T19:49:28;7.60;74.00
802;DHT22;383;48.766;9.270;2023-02-01T19:51:55;7.60;74.40
802;DHT22;383;48.766;9.270;2023-02-01T19:54:22;7.60;74.20
802;DHT22;383;48.766;9.270;2023-02-01T19:56:49;7.60;73.80
802;DHT22;383;48.766;9.270;2023-02-01T19:59:16;7.60;74.50
802;DHT22;383;48.766;9.270;2023-02-01T20:01:43;7.60;74.50
802;DHT22;383;48.766;9.270;2023-02-01T20:04:12;7.60;74.40
802;DHT22;383;48.766;9.270;2023-02-01T20:06:41;7.60;74.60
802;DHT22;383;48.766;9.270;2023-02-01T20:09:14;7.60;74.20
802;DHT22;383;48.766;9.270;2023-02-01T20:11:41;7.60;74.20
802;DHT22;383;48.766;9.270;2023-02-01T20:14:08;7.60;74.00
802;DHT22;383;48.766;9.270;2023-02-01T20:16:35;7.60;74.20
802;DHT22;383;48.766;9.270;2023-02-01T20:19:01;7.70;74.50
802;DHT22;383;48.766;9.270;2023-02-01T20:21:28;7.70;74.40
802;DHT22;383;48.766;9.270;2023-02-01T20:23:56;7.70;74.40
802;DHT22;383;48.766;9.270;2023-02-01T20:26:23;7.80;74.00
802;DHT22;383;48.766;9.270;2023-02-01T20:28:50;7.80;74.50
802;DHT22;383;48.766;9.270;2023-02-01T20:31:17;7.80;74.10
802;DHT22;383;48.766;9.270;2023-02-01T20:33:44;7.80;74.60
802;DHT22;383;48.766;9.270;2023-02-01T20:36:10;7.80;74.80
802;DHT22;383;48.766;9.270;2023-02-01T20:38:37;7.80;75.00
802;DHT22;383;48.766;9.270;2023-02-01T20:41:07;7.80;75.00
802;DHT22;383;48.766;9.270;2023-02-01T20:43:34;7.80;74.80
802;DHT22;383;48.766;9.270;2023-02-01T20:46:01;7.80;75.30
802;DHT22;383;48.766;9.270;2023-02-01T20:48:28;7.70;75.60
802;DHT22;383;48.766;9.270;2023-02-01T20:50:58;7.80;75.70
802;DHT22;383;48.766;9.270;2023-02-01T20:53:25;7.70;76.30
802;DHT22;383;48.766;9.270;2023-02-01T20:55:52;7.80;76.00
802;DHT22;383;48.766;9.270;2023-02-01T20:58:21;7.80;75.60
802;DHT22;383;48.766;9.270;2023-02-01T21:00:48;7.80;75.80
802;DHT22;383;48.766;9.270;2023-02-01T21:03:16;7.80;76.10
802;DHT22;383;48.766;9.270;2023-02-01T21:05:46;7.80;76.30
802;DHT22;383;48.766;9.270;2023-02-01T21:08:13;7.80;75.80
802;DHT22;383;48.766;9.270;2023-02-01T21:10:39;7.80;75.70
802;DHT22;383;48.766;9.270;2023-02-01T21:13:06;7.80;76.10
802;DHT22;383;48.766;9.270;2023-02-01T21:15:35;7.80;76.10
802;DHT22;383;48.766;9.270;2023-02-01T21:18:03;7.80;76.00
802;DHT22;383;48.766;9.270;2023-02-01T21:20:30;7.90;76.30
802;DHT22;383;48.766;9.270;2023-02-01T21:22:57;7.90;76.20
802;DHT22;383;48.766;9.270;2023-02-01T21:25:24;7.90;76.00
802;DHT22;383;48.766;9.270;2023-02-01T21:27:51;7.90;75.80
802;DHT22;383;48.766;9.270;2023-02-01T21:30:17;7.80;76.00
802;DHT22;383;48.766;9.270;2023-02-01T21:32:45;7.80;76.10
802;DHT22;383;48.766;9.270;2023-02-01T21:35:14;7.90;75.80
802;DHT22;383;48.766;9.270;2023-02-01T21:37:41;7.90;75.80
802;DHT22;383;48.766;9.270;2023-02-01T21:40:09;7.80;76.20
802;DHT22;383;48.766;9.270;2023-02-01T21:42:36;7.90;75.80
802;DHT22;383;48.766;9.270;2023-02-01T21:45:05;7.90;76.00
802;DHT22;383;48.766;9.270;2023-02-01T21:47:32;7.90;75.70
802;DHT22;383;48.766;9.270;2023-02-01T21:50:00;7.90;75.60
802;DHT22;383;48.766;9.270;2023-02-01T21:52:27;8.00;75.60
802;DHT22;383;48.766;9.270;2023-02-01T21:54:53;8.00;75.40
802;DHT22;383;48.766;9.270;2023-02-01T21:57:23;8.00;75.20
802;DHT22;383;48.766;9.270;2023-02-01T21:59:50;8.00;75.00